createdAt,value
2022-08-18T00:00:21.027Z,24.83
2022-08-18T00:00:54.429Z,24.81
2022-08-18T00:01:26.420Z,24.81
2022-08-18T00:02:14.024Z,24.79
2022-08-18T00:03:01.164Z,24.80
2022-08-18T00:03:55.968Z,24.83
2022-08-18T00:04:35.624Z,24.87
2022-08-18T00:05:09.848Z,24.89
2022-08-18T00:05:45.143Z,24.89
2022-08-18T00:06:18.170Z,24.81
2022-08-18T00:06:50.131Z,24.80
2022-08-18T00:07:25.963Z,24.79
2022-08-18T00:07:58.871Z,24.74
2022-08-18T00:08:30.778Z,24.79
2022-08-18T00:09:06.810Z,24.86
2022-08-18T00:09:40.414Z,24.87
2022-08-18T00:10:18.203Z,24.87
2022-08-18T00:10:50.994Z,24.87
2022-08-18T00:11:24.396Z,24.82
2022-08-18T00:11:56.369Z,24.86
2022-08-18T00:12:39.609Z,24.88
2022-08-18T00:13:11.518Z,24.76
2022-08-18T00:13:43.437Z,24.65
2022-08-18T00:14:22.181Z,24.66
2022-08-18T00:14:55.117Z,24.63
2022-08-18T00:15:27.013Z,24.63
2022-08-18T00:15:59.173Z,24.65
2022-08-18T00:16:31.426Z,24.65
2022-08-18T00:17:03.845Z,24.73
2022-08-18T00:17:36.868Z,24.72
2022-08-18T00:18:08.783Z,24.77
2022-08-18T00:18:40.695Z,24.73
2022-08-18T00:19:12.775Z,24.79
2022-08-18T00:19:48.024Z,24.71
2022-08-18T00:20:24.088Z,24.73
2022-08-18T00:20:55.975Z,24.70
2022-08-18T00:21:27.937Z,24.64
2022-08-18T00:22:00.184Z,24.67
2022-08-18T00:22:32.148Z,24.75
2022-08-18T00:23:04.018Z,24.73
2022-08-18T00:23:35.981Z,24.73
2022-08-18T00:24:08.890Z,24.71
2022-08-18T00:24:47.064Z,24.69
2022-08-18T00:25:21.071Z,24.69
2022-08-18T00:25:52.972Z,24.73
2022-08-18T00:26:25.056Z,24.76
2022-08-18T00:26:57.980Z,24.70
2022-08-18T00:27:31.527Z,24.67
2022-08-18T00:28:05.199Z,24.65
2022-08-18T00:28:37.164Z,24.63
2022-08-18T00:29:09.256Z,24.63
2022-08-18T00:29:41.613Z,24.74
2022-08-18T00:30:18.277Z,24.69
2022-08-18T00:30:50.166Z,24.67
2022-08-18T00:31:26.035Z,24.66
2022-08-18T00:31:58.992Z,24.49
2022-08-18T00:32:40.574Z,24.39
2022-08-18T00:33:12.459Z,24.54
2022-08-18T00:33:44.363Z,24.47
2022-08-18T00:34:16.261Z,24.62
2022-08-18T00:34:48.216Z,24.54
2022-08-18T00:35:20.935Z,24.55
2022-08-18T00:35:52.988Z,24.61
2022-08-18T00:36:25.059Z,24.52
2022-08-18T00:36:56.986Z,24.40
2022-08-18T00:37:29.780Z,24.46
2022-08-18T00:38:04.656Z,24.49
2022-08-18T00:38:36.584Z,24.46
2022-08-18T00:39:08.510Z,24.48
2022-08-18T00:39:40.629Z,24.45
2022-08-18T00:40:22.061Z,24.46
2022-08-18T00:40:56.169Z,24.39
2022-08-18T00:41:28.694Z,24.37
2022-08-18T00:42:27.353Z,24.38
2022-08-18T00:43:05.646Z,24.47
2022-08-18T00:43:43.756Z,24.43
2022-08-18T00:44:16.529Z,24.46
2022-08-18T00:44:49.299Z,24.50
2022-08-18T00:45:30.693Z,24.57
2022-08-18T00:46:02.750Z,24.55
2022-08-18T00:46:37.741Z,24.50
2022-08-18T00:47:09.659Z,24.47
2022-08-18T00:47:43.300Z,24.41
2022-08-18T00:48:15.890Z,24.41
2022-08-18T00:48:49.447Z,24.39
2022-08-18T00:49:21.417Z,24.33
2022-08-18T00:49:53.615Z,24.24
2022-08-18T00:50:39.256Z,24.30
2022-08-18T00:51:17.548Z,24.32
2022-08-18T00:51:51.243Z,24.30
2022-08-18T00:52:24.917Z,24.31
2022-08-18T00:53:02.636Z,24.15
2022-08-18T00:53:45.742Z,24.22
2022-08-18T00:54:24.071Z,24.21
2022-08-18T00:54:56.814Z,24.25
2022-08-18T00:55:32.442Z,24.31
2022-08-18T00:56:09.248Z,24.27
2022-08-18T00:56:53.264Z,24.34
2022-08-18T00:57:25.788Z,24.28
2022-08-18T00:58:07.052Z,24.30
2022-08-18T00:58:50.934Z,24.33
2022-08-18T00:59:22.805Z,24.38
2022-08-18T01:00:05.885Z,24.37
2022-08-18T01:00:38.718Z,24.41
2022-08-18T01:01:13.103Z,24.40
2022-08-18T01:01:48.023Z,24.37
2022-08-18T01:02:27.919Z,24.43
2022-08-18T01:03:04.519Z,24.40
2022-08-18T01:03:40.075Z,24.40
2022-08-18T01:04:24.254Z,24.41
2022-08-18T01:05:12.544Z,24.41
2022-08-18T01:06:02.272Z,24.32
2022-08-18T01:06:43.709Z,24.38
2022-08-18T01:07:25.510Z,24.43
2022-08-18T01:07:57.741Z,24.36
2022-08-18T01:08:29.924Z,24.34
2022-08-18T01:09:03.236Z,24.29
2022-08-18T01:09:35.657Z,24.34
2022-08-18T01:10:08.210Z,24.36
2022-08-18T01:10:40.651Z,24.32
2022-08-18T01:11:12.678Z,24.29
2022-08-18T01:11:44.689Z,24.32
2022-08-18T01:12:46.106Z,24.29
2022-08-18T01:13:08.870Z,24.33
2022-08-18T01:13:43.361Z,24.33
2022-08-18T01:14:18.416Z,24.39
2022-08-18T01:14:50.773Z,24.41
2022-08-18T01:15:29.536Z,24.39
2022-08-18T01:16:22.418Z,24.39
2022-08-18T01:17:12.896Z,24.36
2022-08-18T01:18:03.792Z,24.26
2022-08-18T01:18:54.343Z,24.33
2022-08-18T01:19:46.290Z,24.33
2022-08-18T01:20:55.713Z,24.36
2022-08-18T01:21:49.497Z,24.32
2022-08-18T01:22:37.292Z,24.27
2022-08-18T01:23:19.396Z,24.32
2022-08-18T01:23:53.713Z,24.28
2022-08-18T01:24:52.796Z,24.31
2022-08-18T01:25:43.900Z,24.31
2022-08-18T01:26:18.680Z,24.25
2022-08-18T01:26:50.684Z,24.23
2022-08-18T01:27:23.485Z,24.24
2022-08-18T01:27:59.750Z,24.25
2022-08-18T01:28:40.587Z,24.34
2022-08-18T01:29:18.655Z,24.27
2022-08-18T01:29:51.812Z,24.30
2022-08-18T01:30:25.776Z,24.27
2022-08-18T01:30:59.903Z,24.26
2022-08-18T01:31:35.036Z,24.30
2022-08-18T01:32:06.922Z,24.27
2022-08-18T01:32:40.224Z,24.25
2022-08-18T01:33:12.431Z,24.24
2022-08-18T01:33:44.897Z,24.23
2022-08-18T01:34:16.960Z,24.25
2022-08-18T01:34:51.080Z,24.21
2022-08-18T01:35:25.727Z,24.21
2022-08-18T01:36:00.017Z,24.11
2022-08-18T01:36:34.874Z,24.23
2022-08-18T01:37:06.800Z,24.26
2022-08-18T01:37:41.291Z,24.28
2022-08-18T01:38:13.373Z,24.26
2022-08-18T01:38:48.715Z,24.30
2022-08-18T01:40:59.743Z,24.24
2022-08-18T01:41:23.889Z,24.23
2022-08-18T01:41:26.645Z,24.20
2022-08-18T01:42:04.576Z,24.24
2022-08-18T01:42:37.536Z,24.33
2022-08-18T01:43:09.417Z,24.32
2022-08-18T01:43:41.312Z,24.27
2022-08-18T01:44:13.253Z,24.27
2022-08-18T01:44:47.907Z,24.19
2022-08-18T01:45:20.764Z,24.16
2022-08-18T01:45:53.014Z,24.25
2022-08-18T01:46:26.450Z,24.23
2022-08-18T01:46:58.361Z,24.25
2022-08-18T01:47:57.314Z,24.21
2022-08-18T01:48:24.314Z,24.23
2022-08-18T01:49:01.351Z,24.26
2022-08-18T01:49:33.344Z,24.25
2022-08-18T01:50:06.677Z,24.24
2022-08-18T01:50:41.318Z,24.23
2022-08-18T01:51:13.665Z,24.25
2022-08-18T01:51:46.455Z,24.25
2022-08-18T01:52:21.202Z,24.25
2022-08-18T01:52:53.789Z,24.27
2022-08-18T01:53:26.685Z,24.32
2022-08-18T01:53:59.757Z,24.33
2022-08-18T01:54:33.353Z,24.31
2022-08-18T01:55:07.890Z,24.25
2022-08-18T01:55:45.257Z,24.28
2022-08-18T01:56:17.838Z,24.24
2022-08-18T01:56:50.278Z,24.27
2022-08-18T01:57:22.511Z,24.25
2022-08-18T01:57:55.516Z,24.25
2022-08-18T01:58:31.857Z,24.29
2022-08-18T01:59:04.499Z,24.27
2022-08-18T01:59:36.433Z,24.21
2022-08-18T02:00:10.567Z,24.17
2022-08-18T02:00:44.882Z,24.13
2022-08-18T02:01:17.184Z,24.17
2022-08-18T02:01:52.953Z,24.16
2022-08-18T02:02:31.618Z,24.09
2022-08-18T02:03:11.683Z,24.09
2022-08-18T02:03:49.462Z,24.13
2022-08-18T02:04:36.029Z,24.15
2022-08-18T02:05:27.480Z,24.15
2022-08-18T02:06:09.692Z,24.11
2022-08-18T02:06:42.401Z,24.02
2022-08-18T02:07:20.150Z,23.91
2022-08-18T02:07:52.501Z,23.98
2022-08-18T02:08:28.172Z,24.04
2022-08-18T02:09:01.171Z,24.07
2022-08-18T02:09:33.712Z,24.08
2022-08-18T02:10:11.781Z,24.05
2022-08-18T02:10:44.414Z,24.01
2022-08-18T02:11:16.695Z,24.05
2022-08-18T02:11:48.671Z,24.03
2022-08-18T02:12:23.978Z,24.05
2022-08-18T02:12:55.960Z,24.11
2022-08-18T02:13:27.944Z,24.10
2022-08-18T02:13:59.913Z,24.11
2022-08-18T02:14:31.842Z,24.00
2022-08-18T02:15:05.991Z,23.97
2022-08-18T02:15:37.960Z,23.84
2022-08-18T02:16:13.831Z,23.73
2022-08-18T02:16:46.285Z,23.71
2022-08-18T02:17:18.252Z,23.78
2022-08-18T02:17:50.344Z,23.74
2022-08-18T02:18:46.888Z,23.75
2022-08-18T02:19:20.481Z,23.81
2022-08-18T02:19:52.419Z,23.77
2022-08-18T02:20:24.980Z,23.74
2022-08-18T02:20:59.601Z,23.78
2022-08-18T02:21:31.577Z,23.72
2022-08-18T02:22:05.287Z,23.79
2022-08-18T02:22:37.340Z,23.76
2022-08-18T02:23:11.198Z,23.82
2022-08-18T02:23:52.184Z,23.83
2022-08-18T02:24:25.732Z,23.78
2022-08-18T02:24:58.048Z,23.73
2022-08-18T02:25:30.071Z,23.75
2022-08-18T02:26:10.885Z,23.75
2022-08-18T02:26:43.909Z,23.70
2022-08-18T02:27:17.300Z,23.67
2022-08-18T02:27:49.371Z,23.68
2022-08-18T02:28:21.343Z,23.71
2022-08-18T02:28:53.356Z,23.76
2022-08-18T02:29:25.264Z,23.85
2022-08-18T02:30:00.276Z,23.82
2022-08-18T02:30:35.061Z,23.81
2022-08-18T02:31:14.322Z,23.78
2022-08-18T02:31:46.242Z,23.70
2022-08-18T02:32:18.399Z,23.73
2022-08-18T02:32:50.362Z,23.67
2022-08-18T02:33:22.298Z,23.67
2022-08-18T02:33:54.286Z,23.69
2022-08-18T02:34:27.036Z,23.71
2022-08-18T02:34:59.151Z,23.70
2022-08-18T02:35:31.143Z,23.67
2022-08-18T02:36:03.836Z,23.54
2022-08-18T02:36:35.776Z,23.54
2022-08-18T02:37:10.847Z,23.49
2022-08-18T02:37:48.520Z,23.39
2022-08-18T02:38:20.476Z,23.49
2022-08-18T02:38:59.457Z,23.55
2022-08-18T02:39:35.414Z,23.59
2022-08-18T02:40:08.058Z,23.55
2022-08-18T02:40:40.029Z,23.50
2022-08-18T02:41:13.208Z,23.32
2022-08-18T02:41:45.109Z,23.34
2022-08-18T02:42:17.547Z,23.35
2022-08-18T02:42:50.114Z,23.39
2022-08-18T02:43:22.197Z,23.31
2022-08-18T02:43:54.105Z,23.36
2022-08-18T02:44:26.189Z,23.36
2022-08-18T02:44:58.152Z,23.32
2022-08-18T02:45:31.101Z,23.34
2022-08-18T02:46:03.838Z,23.36
2022-08-18T02:46:36.462Z,23.40
2022-08-18T02:47:08.858Z,23.41
2022-08-18T02:47:42.983Z,23.32
2022-08-18T02:48:16.892Z,23.26
2022-08-18T02:48:50.631Z,23.28
2022-08-18T02:49:22.709Z,23.33
2022-08-18T02:49:54.681Z,23.31
2022-08-18T02:50:26.844Z,23.31
2022-08-18T02:51:09.531Z,23.17
2022-08-18T02:51:44.339Z,23.26
2022-08-18T02:52:17.327Z,23.10
2022-08-18T02:52:49.374Z,23.14
2022-08-18T02:53:25.089Z,23.15
2022-08-18T02:54:00.529Z,23.20
2022-08-18T02:54:32.627Z,23.19
2022-08-18T02:55:05.111Z,23.10
2022-08-18T02:55:38.096Z,23.15
2022-08-18T02:56:18.502Z,23.18
2022-08-18T02:57:12.387Z,23.18
2022-08-18T02:57:46.108Z,23.15
2022-08-18T02:58:20.513Z,23.20
2022-08-18T02:58:55.350Z,23.26
2022-08-18T02:59:28.072Z,23.19
2022-08-18T03:00:04.723Z,23.19
2022-08-18T03:00:36.773Z,23.05
2022-08-18T03:01:08.735Z,23.04
2022-08-18T03:01:45.103Z,23.10
2022-08-18T03:02:17.196Z,23.13
2022-08-18T03:02:51.632Z,23.19
2022-08-18T03:03:23.641Z,23.20
2022-08-18T03:03:57.623Z,23.15
2022-08-18T03:04:30.841Z,23.04
2022-08-18T03:05:02.801Z,23.12
2022-08-18T03:05:34.893Z,23.04
2022-08-18T03:06:07.114Z,23.04
2022-08-18T03:06:40.193Z,23.00
2022-08-18T03:07:14.609Z,22.99
2022-08-18T03:07:46.829Z,22.99
2022-08-18T03:08:18.782Z,23.00
2022-08-18T03:08:52.137Z,22.97
2022-08-18T03:09:24.467Z,22.95
2022-08-18T03:09:56.384Z,22.92
2022-08-18T03:10:33.409Z,22.92
2022-08-18T03:11:06.118Z,22.92
2022-08-18T03:11:38.627Z,22.85
2022-08-18T03:12:10.838Z,22.90
2022-08-18T03:12:43.455Z,22.94
2022-08-18T03:13:15.519Z,22.92
2022-08-18T03:13:47.889Z,22.94
2022-08-18T03:14:20.695Z,22.94
2022-08-18T03:14:52.922Z,22.98
2022-08-18T03:15:26.581Z,23.01
2022-08-18T03:15:58.508Z,22.89
2022-08-18T03:16:33.102Z,22.96
2022-08-18T03:17:08.610Z,23.00
2022-08-18T03:17:40.680Z,23.04
2022-08-18T03:18:13.341Z,23.07
2022-08-18T03:18:46.677Z,23.04
2022-08-18T03:19:18.553Z,23.02
2022-08-18T03:19:50.466Z,22.99
2022-08-18T03:20:30.187Z,22.94
2022-08-18T03:21:11.648Z,22.99
2022-08-18T03:21:46.677Z,22.83
2022-08-18T03:22:28.199Z,22.79
2022-08-18T03:23:09.883Z,22.79
2022-08-18T03:23:42.739Z,22.75
2022-08-18T03:24:19.332Z,22.79
2022-08-18T03:24:54.520Z,22.67
2022-08-18T03:25:26.761Z,22.66
2022-08-18T03:25:59.093Z,22.65
2022-08-18T03:26:33.045Z,22.66
2022-08-18T03:27:07.156Z,22.63
2022-08-18T03:27:39.042Z,22.64
2022-08-18T03:28:10.952Z,22.61
2022-08-18T03:28:46.938Z,22.61
2022-08-18T03:29:20.064Z,22.54
2022-08-18T03:29:52.473Z,22.35
2022-08-18T03:30:24.362Z,22.42
2022-08-18T03:30:56.605Z,22.47
2022-08-18T03:31:31.511Z,22.35
2022-08-18T03:32:06.815Z,22.43
2022-08-18T03:32:38.727Z,22.52
2022-08-18T03:33:17.697Z,22.57
2022-08-18T03:33:51.668Z,22.66
2022-08-18T03:34:23.663Z,22.71
2022-08-18T03:34:55.611Z,22.68
2022-08-18T03:35:27.612Z,22.73
2022-08-18T03:36:08.020Z,22.68
2022-08-18T03:36:40.145Z,22.70
2022-08-18T03:37:12.075Z,22.52
2022-08-18T03:37:44.845Z,22.53
2022-08-18T03:38:16.960Z,22.56
2022-08-18T03:38:50.915Z,22.56
2022-08-18T03:39:27.634Z,22.59
2022-08-18T03:39:59.772Z,22.59
2022-08-18T03:40:31.803Z,22.68
2022-08-18T03:41:05.876Z,22.68
2022-08-18T03:41:44.089Z,22.76
2022-08-18T03:42:31.410Z,22.77
2022-08-18T03:43:06.452Z,22.78
2022-08-18T03:43:58.373Z,22.81
2022-08-18T03:44:33.333Z,22.82
2022-08-18T03:45:13.126Z,22.79
2022-08-18T03:45:49.610Z,22.74
2022-08-18T03:46:23.257Z,22.83
2022-08-18T03:46:55.202Z,22.78
2022-08-18T03:47:28.185Z,22.77
2022-08-18T03:48:01.598Z,22.74
2022-08-18T03:48:33.917Z,22.73
2022-08-18T03:49:05.870Z,22.73
2022-08-18T03:49:38.732Z,22.74
2022-08-18T03:50:13.929Z,22.70
2022-08-18T03:50:47.383Z,22.59
2022-08-18T03:51:22.855Z,22.61
2022-08-18T03:51:55.292Z,22.71
2022-08-18T03:52:27.189Z,22.69
2022-08-18T03:52:59.751Z,22.60
2022-08-18T03:53:32.544Z,22.68
2022-08-18T03:54:05.848Z,22.71
2022-08-18T03:54:39.238Z,22.68
2022-08-18T03:55:11.293Z,22.70
2022-08-18T03:55:43.502Z,22.73
2022-08-18T03:56:20.816Z,22.73
2022-08-18T03:56:54.673Z,22.76
2022-08-18T03:57:26.880Z,22.82
2022-08-18T03:58:03.066Z,22.73
2022-08-18T03:58:36.851Z,22.65
2022-08-18T03:59:17.001Z,22.65
2022-08-18T03:59:48.889Z,22.62
2022-08-18T04:00:21.896Z,22.56
2022-08-18T04:00:54.335Z,22.47
2022-08-18T04:01:30.022Z,22.53
2022-08-18T04:02:04.454Z,22.62
2022-08-18T04:02:36.437Z,22.68
2022-08-18T04:03:09.649Z,22.74
2022-08-18T04:03:47.087Z,22.61
2022-08-18T04:04:25.277Z,22.57
2022-08-18T04:04:57.255Z,22.54
2022-08-18T04:05:29.332Z,22.53
2022-08-18T04:06:01.528Z,22.53
2022-08-18T04:06:41.088Z,22.44
2022-08-18T04:07:14.481Z,22.47
2022-08-18T04:07:46.450Z,22.45
2022-08-18T04:08:18.335Z,22.51
2022-08-18T04:08:55.047Z,22.60
2022-08-18T04:09:30.295Z,22.61
2022-08-18T04:10:02.231Z,22.54
2022-08-18T04:10:35.662Z,22.50
2022-08-18T04:11:08.032Z,22.45
2022-08-18T04:11:43.484Z,22.53
2022-08-18T04:12:17.361Z,22.58
2022-08-18T04:12:50.005Z,22.51
2022-08-18T04:13:23.450Z,22.43
2022-08-18T04:13:59.223Z,22.36
2022-08-18T04:14:34.279Z,22.43
2022-08-18T04:15:06.538Z,22.55
2022-08-18T04:15:38.420Z,22.57
2022-08-18T04:16:10.737Z,22.64
2022-08-18T04:16:43.588Z,22.72
2022-08-18T04:17:17.538Z,22.88
2022-08-18T04:17:56.219Z,22.91
2022-08-18T04:18:35.731Z,22.94
2022-08-18T04:19:09.965Z,23.05
2022-08-18T04:19:42.097Z,23.09
2022-08-18T04:20:14.004Z,23.15
2022-08-18T04:20:58.952Z,23.21
2022-08-18T04:21:35.692Z,23.24
2022-08-18T04:22:07.606Z,23.25
2022-08-18T04:22:40.361Z,23.29
2022-08-18T04:23:12.319Z,23.27
2022-08-18T04:23:44.775Z,23.25
2022-08-18T04:24:17.388Z,23.28
2022-08-18T04:24:50.343Z,23.16
2022-08-18T04:25:22.654Z,23.21
2022-08-18T04:25:59.030Z,23.22
2022-08-18T04:26:40.139Z,23.24
2022-08-18T04:27:12.505Z,23.30
2022-08-18T04:27:44.748Z,23.33
2022-08-18T04:28:16.654Z,23.36
2022-08-18T04:28:48.666Z,23.34
2022-08-18T04:29:21.661Z,23.32
2022-08-18T04:29:56.758Z,23.35
2022-08-18T04:30:29.636Z,23.32
2022-08-18T04:31:09.215Z,23.28
2022-08-18T04:31:42.267Z,23.30
2022-08-18T04:32:15.282Z,23.34
2022-08-18T04:32:47.273Z,23.37
2022-08-18T04:33:19.877Z,23.39
2022-08-18T04:33:52.049Z,23.33
2022-08-18T04:34:24.017Z,23.40
2022-08-18T04:34:56.046Z,23.44
2022-08-18T04:35:31.032Z,23.44
2022-08-18T04:36:19.173Z,23.41
2022-08-18T04:36:54.125Z,23.28
2022-08-18T04:37:26.743Z,23.30
2022-08-18T04:37:58.644Z,23.32
2022-08-18T04:38:30.559Z,23.30
2022-08-18T04:39:05.858Z,23.36
2022-08-18T04:39:38.025Z,23.43
2022-08-18T04:40:11.469Z,23.35
2022-08-18T04:40:45.125Z,23.40
2022-08-18T04:41:17.969Z,23.47
2022-08-18T04:41:51.019Z,23.50
2022-08-18T04:42:22.906Z,23.46
2022-08-18T04:42:55.337Z,23.45
2022-08-18T04:43:27.714Z,23.49
2022-08-18T04:44:02.585Z,23.48
2022-08-18T04:44:37.825Z,23.50
2022-08-18T04:45:10.309Z,23.46
2022-08-18T04:45:44.957Z,23.53
2022-08-18T04:46:16.996Z,23.59
2022-08-18T04:46:53.640Z,23.68
2022-08-18T04:47:26.210Z,23.66
2022-08-18T04:47:58.399Z,23.56
2022-08-18T04:48:35.926Z,23.39
2022-08-18T04:49:09.311Z,23.43
2022-08-18T04:49:41.303Z,23.50
2022-08-18T04:50:13.256Z,23.46
2022-08-18T04:50:45.309Z,23.54
2022-08-18T04:52:32.007Z,23.65
2022-08-18T04:52:39.740Z,23.71
2022-08-18T04:53:45.485Z,23.77
2022-08-18T04:54:17.389Z,23.85
2022-08-18T04:54:49.321Z,23.92
2022-08-18T04:55:21.198Z,23.94
2022-08-18T04:55:55.829Z,23.90
2022-08-18T04:56:30.715Z,23.94
2022-08-18T04:57:07.932Z,23.96
2022-08-18T04:57:39.931Z,23.97
2022-08-18T04:58:11.835Z,23.96
2022-08-18T04:58:44.182Z,23.82
2022-08-18T04:59:16.445Z,23.87
2022-08-18T04:59:52.260Z,23.96
2022-08-18T05:00:24.596Z,24.01
2022-08-18T05:01:01.570Z,24.09
2022-08-18T05:01:48.351Z,24.11
2022-08-18T05:02:22.050Z,24.17
2022-08-18T05:02:54.593Z,24.19
2022-08-18T05:03:27.069Z,24.23
2022-08-18T05:03:59.388Z,24.25
2022-08-18T05:04:31.948Z,24.26
2022-08-18T05:05:04.922Z,24.32
2022-08-18T05:05:37.222Z,24.33
2022-08-18T05:06:09.903Z,24.35
2022-08-18T05:06:43.645Z,24.35
2022-08-18T05:07:20.451Z,24.43
2022-08-18T05:07:52.602Z,24.40
2022-08-18T05:08:25.486Z,24.41
2022-08-18T05:09:00.425Z,24.44
2022-08-18T05:09:32.662Z,24.50
2022-08-18T05:10:17.641Z,24.49
2022-08-18T05:11:03.812Z,24.52
2022-08-18T05:11:37.360Z,24.64
2022-08-18T05:12:14.279Z,24.68
2022-08-18T05:12:48.219Z,24.66
2022-08-18T05:13:20.600Z,24.61
2022-08-18T05:13:52.872Z,24.58
2022-08-18T05:14:25.109Z,24.56
2022-08-18T05:14:57.638Z,24.61
2022-08-18T05:15:42.151Z,24.69
2022-08-18T05:16:27.463Z,24.77
2022-08-18T05:17:00.440Z,24.73
2022-08-18T05:17:32.351Z,24.68
2022-08-18T05:18:05.343Z,24.79
2022-08-18T05:18:40.411Z,24.84
2022-08-18T05:19:15.460Z,24.88
2022-08-18T05:19:51.740Z,24.83
2022-08-18T05:20:24.056Z,24.89
2022-08-18T05:21:00.327Z,24.84
2022-08-18T05:21:37.294Z,24.77
2022-08-18T05:22:11.550Z,24.86
2022-08-18T05:22:45.994Z,24.92
2022-08-18T05:23:18.761Z,24.93
2022-08-18T05:23:51.198Z,24.99
2022-08-18T05:24:25.313Z,24.99
2022-08-18T05:24:58.229Z,25.07
2022-08-18T05:25:30.505Z,25.12
2022-08-18T05:26:03.802Z,25.19
2022-08-18T05:26:36.406Z,25.21
2022-08-18T05:27:08.359Z,25.14
2022-08-18T05:27:43.616Z,25.12
2022-08-18T05:28:16.451Z,25.17
2022-08-18T05:28:49.290Z,25.08
2022-08-18T05:29:29.167Z,25.12
2022-08-18T05:30:06.061Z,25.05
2022-08-18T05:30:38.288Z,24.95
2022-08-18T05:31:19.371Z,25.01
2022-08-18T05:31:53.583Z,25.05
2022-08-18T05:32:36.985Z,25.14
2022-08-18T05:33:17.520Z,25.19
2022-08-18T05:33:49.942Z,25.25
2022-08-18T05:34:22.073Z,25.22
2022-08-18T05:34:54.085Z,25.23
2022-08-18T05:35:33.654Z,25.26
2022-08-18T05:36:23.463Z,25.26
2022-08-18T05:37:02.914Z,25.21
2022-08-18T05:37:48.440Z,25.30
2022-08-18T05:38:38.782Z,25.24
2022-08-18T05:39:21.035Z,25.26
2022-08-18T05:39:58.833Z,25.32
2022-08-18T05:40:31.928Z,25.33
2022-08-18T05:41:14.498Z,25.39
2022-08-18T05:42:05.980Z,25.44
2022-08-18T05:42:39.879Z,25.47
2022-08-18T05:43:15.153Z,25.55
2022-08-18T05:43:51.932Z,25.54
2022-08-18T05:44:30.643Z,25.47
2022-08-18T05:45:08.522Z,25.42
2022-08-18T05:45:41.992Z,25.37
2022-08-18T05:46:14.013Z,25.43
2022-08-18T05:46:54.778Z,25.47
2022-08-18T05:47:29.812Z,25.52
2022-08-18T05:48:01.965Z,25.34
2022-08-18T05:48:39.791Z,25.38
2022-08-18T05:49:15.791Z,25.38
2022-08-18T05:49:49.205Z,25.56
2022-08-18T05:50:21.367Z,25.61
2022-08-18T05:50:55.416Z,25.72
2022-08-18T05:51:34.616Z,25.72
2022-08-18T05:52:14.015Z,25.77
2022-08-18T05:53:05.566Z,25.57
2022-08-18T05:54:04.638Z,25.67
2022-08-18T05:55:07.299Z,25.67
2022-08-18T05:56:24.152Z,25.68
2022-08-18T05:57:02.400Z,25.74
2022-08-18T05:57:45.031Z,25.79
2022-08-18T05:58:33.391Z,25.83
2022-08-18T05:59:06.169Z,25.76
2022-08-18T05:59:41.258Z,25.74
2022-08-18T06:00:13.857Z,25.79
2022-08-18T06:01:00.219Z,25.89
2022-08-18T06:01:44.280Z,25.99
2022-08-18T06:02:47.356Z,25.96
2022-08-18T06:03:26.378Z,26.19
2022-08-18T06:04:09.134Z,26.25
2022-08-18T06:04:52.198Z,26.32
2022-08-18T06:05:32.809Z,26.35
2022-08-18T06:06:17.620Z,26.34
2022-08-18T06:06:51.563Z,26.37
2022-08-18T06:07:34.318Z,26.41
2022-08-18T06:08:10.353Z,26.51
2022-08-18T06:08:46.933Z,26.52
2022-08-18T06:09:28.947Z,26.48
2022-08-18T06:10:00.940Z,26.40
2022-08-18T06:10:33.084Z,26.44
2022-08-18T06:11:05.572Z,26.55
2022-08-18T06:11:50.407Z,26.65
2022-08-18T06:12:28.939Z,26.58
2022-08-18T06:13:02.407Z,26.62
2022-08-18T06:13:40.856Z,26.65
2022-08-18T06:14:13.576Z,26.73
2022-08-18T06:14:46.233Z,26.72
2022-08-18T06:15:33.254Z,26.77
2022-08-18T06:16:20.125Z,26.82
2022-08-18T06:16:55.233Z,26.85
2022-08-18T06:17:39.369Z,26.96
2022-08-18T06:18:43.837Z,27.00
2022-08-18T06:19:39.161Z,27.11
2022-08-18T06:20:36.486Z,27.13
2022-08-18T06:21:38.777Z,27.27
2022-08-18T06:22:22.277Z,27.40
2022-08-18T06:23:33.377Z,27.52
2022-08-18T06:24:18.871Z,27.57
2022-08-18T06:25:01.493Z,27.62
2022-08-18T06:25:47.291Z,27.53
2022-08-18T06:26:19.837Z,27.51
2022-08-18T06:27:12.052Z,27.52
2022-08-18T06:28:14.202Z,27.53
2022-08-18T06:29:06.418Z,27.53
2022-08-18T06:29:47.916Z,27.35
2022-08-18T06:30:25.308Z,27.54
2022-08-18T06:31:13.400Z,27.69
2022-08-18T06:32:05.729Z,27.83
2022-08-18T06:33:10.675Z,27.93
2022-08-18T06:34:09.471Z,28.04
2022-08-18T06:35:18.310Z,28.12
2022-08-18T06:36:12.823Z,28.21
2022-08-18T06:36:58.102Z,28.29
2022-08-18T06:38:10.154Z,28.27
2022-08-18T06:39:03.672Z,28.34
2022-08-18T06:39:50.576Z,28.30
2022-08-18T06:40:22.797Z,28.13
2022-08-18T06:41:42.893Z,28.04
2022-08-18T06:42:11.329Z,28.12
2022-08-18T06:42:43.718Z,28.22
2022-08-18T06:43:17.285Z,28.26
2022-08-18T06:44:04.322Z,28.26
2022-08-18T06:44:42.605Z,28.31
2022-08-18T06:45:18.388Z,28.45
2022-08-18T06:45:52.400Z,28.48
2022-08-18T06:46:41.880Z,28.52
2022-08-18T06:47:44.645Z,28.43
2022-08-18T06:48:37.789Z,28.48
2022-08-18T06:49:26.684Z,28.50
2022-08-18T06:50:06.460Z,28.58
2022-08-18T06:50:56.017Z,28.55
2022-08-18T06:51:28.547Z,28.63
2022-08-18T06:52:22.453Z,28.55
2022-08-18T06:52:59.057Z,28.50
2022-08-18T06:54:01.742Z,28.57
2022-08-18T06:54:42.634Z,28.60
2022-08-18T06:55:32.564Z,28.64
2022-08-18T06:56:26.282Z,28.75
2022-08-18T06:56:58.977Z,28.79
2022-08-18T06:57:52.909Z,28.85
2022-08-18T06:58:30.690Z,28.82
2022-08-18T06:59:18.566Z,28.88
2022-08-18T07:00:17.118Z,28.88
2022-08-18T07:00:56.347Z,28.86
2022-08-18T07:01:29.414Z,28.88
2022-08-18T07:02:20.932Z,28.99
2022-08-18T07:03:21.592Z,28.89
2022-08-18T07:03:56.737Z,29.14
2022-08-18T07:04:57.780Z,29.23
2022-08-18T07:05:32.287Z,29.33
2022-08-18T07:06:21.493Z,29.22
2022-08-18T07:06:53.553Z,29.23
2022-08-18T07:07:40.029Z,29.25
2022-08-18T07:08:27.692Z,29.23
2022-08-18T07:09:24.420Z,29.26
2022-08-18T07:09:56.572Z,29.21
2022-08-18T07:10:39.246Z,28.99
2022-08-18T07:11:23.073Z,29.14
2022-08-18T07:12:02.020Z,29.28
2022-08-18T07:12:34.920Z,29.40
2022-08-18T07:13:07.873Z,29.53
2022-08-18T07:13:42.275Z,29.44
2022-08-18T07:14:16.923Z,29.50
2022-08-18T07:14:56.025Z,29.57
2022-08-18T07:15:28.092Z,29.54
2022-08-18T07:16:26.310Z,29.41
2022-08-18T07:17:13.902Z,29.36
2022-08-18T07:17:49.019Z,29.46
2022-08-18T07:18:28.446Z,29.57
2022-08-18T07:19:16.739Z,29.62
2022-08-18T07:20:16.560Z,29.64
2022-08-18T07:20:58.345Z,29.70
2022-08-18T07:21:32.516Z,29.44
2022-08-18T07:22:10.084Z,29.55
2022-08-18T07:23:07.976Z,29.53
2022-08-18T07:23:40.812Z,29.56
2022-08-18T07:24:46.567Z,29.56
2022-08-18T07:25:27.659Z,29.65
2022-08-18T07:26:15.747Z,29.71
2022-08-18T07:27:00.931Z,29.74
2022-08-18T07:27:52.894Z,29.52
2022-08-18T07:28:53.799Z,29.43
2022-08-18T07:29:26.641Z,29.60
2022-08-18T07:30:05.826Z,29.73
2022-08-18T07:30:41.869Z,29.84
2022-08-18T07:31:35.154Z,29.95
2022-08-18T07:32:21.482Z,29.89
2022-08-18T07:33:21.246Z,29.91
2022-08-18T07:34:15.217Z,29.87
2022-08-18T07:34:53.802Z,29.83
2022-08-18T07:35:39.211Z,29.91
2022-08-18T07:36:13.458Z,30.06
2022-08-18T07:36:53.153Z,30.08
2022-08-18T07:37:31.767Z,29.95
2022-08-18T07:38:40.601Z,29.98
2022-08-18T07:39:32.991Z,30.03
2022-08-18T07:40:31.576Z,30.05
2022-08-18T07:41:13.853Z,29.94
2022-08-18T07:41:57.499Z,29.97
2022-08-18T07:43:00.763Z,30.10
2022-08-18T07:43:39.237Z,30.06
2022-08-18T07:44:19.890Z,30.18
2022-08-18T07:45:09.524Z,30.19
2022-08-18T07:45:44.580Z,30.23
2022-08-18T07:46:26.239Z,30.31
2022-08-18T07:47:03.758Z,30.46
2022-08-18T07:47:42.131Z,30.43
2022-08-18T07:48:37.770Z,30.41
2022-08-18T07:49:21.661Z,30.43
2022-08-18T07:50:16.889Z,30.49
2022-08-18T07:51:22.207Z,30.50
2022-08-18T07:51:59.863Z,30.68
2022-08-18T07:52:51.563Z,30.67
2022-08-18T07:54:01.764Z,30.59
2022-08-18T07:55:02.109Z,30.54
2022-08-18T07:55:35.994Z,30.70
2022-08-18T07:56:21.914Z,30.54
2022-08-18T07:57:09.007Z,30.54
2022-08-18T07:58:12.265Z,30.68
2022-08-18T07:59:07.072Z,30.73
2022-08-18T08:00:18.725Z,30.75
2022-08-18T08:01:08.301Z,30.66
2022-08-18T08:01:52.462Z,30.59
2022-08-18T08:02:27.012Z,30.63
2022-08-18T08:03:14.424Z,30.68
2022-08-18T08:04:04.805Z,30.78
2022-08-18T08:05:05.093Z,30.92
2022-08-18T08:05:48.601Z,31.08
2022-08-18T08:07:06.101Z,31.16